Time;durP1;ratioP1;P1;durP2;ratioP2;P2;SDS_P1;SDS_P2;PMS_P1;PMS_P2;Temp;Humidity;BMP_temperature;BMP_pressure;BME280_temperature;BME280_humidity;BME280_pressure;Samples;Min_cycle;Max_cycle;Signal;HPM_P1;HPM_P2
2022/01/27 00:01:56;;;;;;;14.57;8.18;;;3.10;99.90;;;;;;5077341;28;20026;-86
2022/01/27 00:04:32;;;;;;;13.73;7.78;;;3.10;99.90;;;;;;5075391;28;20024;-86
2022/01/27 00:06:58;;;;;;;15.40;8.35;;;3.10;99.90;;;;;;5091887;28;20031;-85
2022/01/27 00:09:50;;;;;;;14.80;7.47;;;3.10;99.90;;;;;;5078396;28;20025;-85
2022/01/27 00:12:09;;;;;;;16.30;7.53;;;3.10;99.90;;;;;;5068787;28;20576;-86
2022/01/27 00:14:46;;;;;;;15.57;7.53;;;3.10;99.90;;;;;;5071819;28;20055;-85
2022/01/27 00:17:14;;;;;;;16.23;9.27;;;3.10;99.90;;;;;;5074881;28;20016;-87
2022/01/27 00:19:46;;;;;;;15.27;8.38;;;3.00;99.90;;;;;;5074239;28;20027;-88
2022/01/27 00:22:11;;;;;;;14.88;6.88;;;3.10;99.90;;;;;;5075176;28;20365;-86
2022/01/27 00:24:37;;;;;;;16.45;8.95;;;3.10;99.90;;;;;;5085760;28;20082;-86
2022/01/27 00:27:22;;;;;;;17.90;8.50;;;3.20;99.90;;;;;;5095511;28;20038;-86
2022/01/27 00:29:48;;;;;;;19.75;9.63;;;3.10;99.90;;;;;;5095695;28;20028;-86
2022/01/27 00:32:13;;;;;;;16.38;8.35;;;3.10;99.90;;;;;;5095459;28;20541;-87
2022/01/27 00:35:06;;;;;;;23.92;9.98;;;3.30;99.90;;;;;;5092579;28;20095;-87
2022/01/27 00:37:36;;;;;;;20.70;10.25;;;3.20;99.90;;;;;;5086661;28;20016;-87
2022/01/27 00:40:03;;;;;;;19.45;10.00;;;3.10;99.90;;;;;;5074887;28;20485;-86
2022/01/27 00:42:30;;;;;;;21.90;10.93;;;3.10;99.90;;;;;;5075137;28;20490;-87
2022/01/27 00:44:56;;;;;;;23.63;10.95;;;3.10;99.90;;;;;;5073738;28;20106;-86
2022/01/27 00:47:22;;;;;;;23.30;10.38;;;3.10;99.90;;;;;;5073566;28;20104;-86
2022/01/27 00:49:47;;;;;;;20.30;10.57;;;3.10;99.90;;;;;;5088824;28;20104;-86
2022/01/27 00:52:26;;;;;;;18.23;9.23;;;3.10;99.90;;;;;;5093477;28;20038;-86
2022/01/27 00:54:58;;;;;;;20.70;10.13;;;3.10;99.90;;;;;;5094940;28;20042;-85
2022/01/27 00:57:38;;;;;;;23.13;9.95;;;3.10;99.90;;;;;;5085129;28;20095;-86
2022/01/27 01:00:10;;;;;;;24.05;10.75;;;3.10;99.90;;;;;;5083646;28;20029;-86
2022/01/27 01:08:04;;;;;;;20.53;10.10;;;3.20;99.90;;;;;;5091977;28;20031;-86
2022/01/27 01:11:09;;;;;;;17.60;9.57;;;3.10;99.90;;;;;;5074632;28;20031;-87
2022/01/27 01:16:00;;;;;;;21.85;10.18;;;3.10;99.90;;;;;;5054800;28;20114;-86
2022/01/27 01:21:40;;;;;;;16.25;8.75;;;3.20;99.90;;;;;;5073966;28;20017;-86
2022/01/27 01:29:55;;;;;;;13.07;7.40;;;3.20;99.90;;;;;;5064607;28;20054;-87
2022/01/27 01:32:46;;;;;;;13.88;7.13;;;3.20;99.90;;;;;;5073956;28;20040;-89
2022/01/27 01:35:17;;;;;;;9.77;6.18;;;3.20;99.90;;;;;;5073878;28;20036;-88
2022/01/27 01:37:44;;;;;;;14.70;6.97;;;3.10;99.90;;;;;;5073615;28;20374;-85
2022/01/27 01:40:16;;;;;;;14.32;7.25;;;3.20;99.90;;;;;;5081419;28;20020;-89
2022/01/27 01:42:43;;;;;;;16.35;6.03;;;3.20;99.90;;;;;;5087161;28;20058;-88
2022/01/27 01:45:40;;;;;;;11.52;6.43;;;3.10;99.90;;;;;;5072345;28;20032;-87
2022/01/27 01:48:05;;;;;;;12.77;7.15;;;3.10;99.90;;;;;;5072460;28;20028;-88
2022/01/27 01:50:44;;;;;;;10.60;5.78;;;3.10;99.90;;;;;;5073379;28;20032;-86
2022/01/27 01:53:13;;;;;;;13.43;6.68;;;3.10;99.90;;;;;;5073326;28;20056;-86
2022/01/27 01:55:39;;;;;;;11.80;5.70;;;3.20;99.90;;;;;;5073596;28;20443;-86
2022/01/27 01:58:07;;;;;;;13.70;6.05;;;3.10;99.90;;;;;;5072234;28;20060;-88
2022/01/27 02:00:32;;;;;;;10.07;6.38;;;3.10;99.90;;;;;;5073414;28;20028;-89
2022/01/27 02:02:58;;;;;;;11.02;6.05;;;3.10;99.90;;;;;;5073377;28;20376;-88
2022/01/27 02:05:48;;;;;;;12.70;5.93;;;3.10;99.90;;;;;;5073364;28;20020;-87
2022/01/27 02:19:26;;;;;;;14.65;6.97;;;3.20;99.90;;;;;;5093527;28;20445;-88
2022/01/27 02:21:54;;;;;;;11.98;6.03;;;3.10;99.90;;;;;;5082521;28;20111;-86
2022/01/27 02:24:22;;;;;;;11.98;7.63;;;3.10;99.90;;;;;;5072103;28;20545;-86
2022/01/27 02:27:00;;;;;;;12.68;7.07;;;3.10;99.90;;;;;;5073244;28;20020;-87
2022/01/27 02:29:26;;;;;;;15.10;7.65;;;3.10;99.90;;;;;;5071769;28;20012;-86
2022/01/27 02:31:57;;;;;;;14.40;7.57;;;3.00;99.90;;;;;;5072954;28;20108;-87
2022/01/27 02:34:23;;;;;;;15.95;6.85;;;3.00;99.90;;;;;;5071416;28;20036;-86
2022/01/27 02:37:01;;;;;;;15.18;7.70;;;3.10;99.90;;;;;;5072708;28;20020;-88
2022/01/27 02:39:27;;;;;;;14.55;8.02;;;3.10;99.90;;;;;;5070879;28;20013;-86
2022/01/27 02:42:15;;;;;;;15.80;7.70;;;3.10;99.90;;;;;;5072725;28;20036;-86
2022/01/27 02:47:53;;;;;;;13.63;7.40;;;3.00;99.90;;;;;;5073920;28;20035;-86
2022/01/27 02:50:31;;;;;;;17.48;8.75;;;3.00;99.90;;;;;;5086191;28;20056;-87
2022/01/27 02:52:58;;;;;;;14.38;7.80;;;3.00;99.90;;;;;;5083977;28;20029;-87
2022/01/27 02:55:24;;;;;;;17.17;7.85;;;3.00;99.90;;;;;;5071370;28;20056;-87
2022/01/27 02:57:49;;;;;;;16.05;8.30;;;3.00;99.90;;;;;;5076048;28;20064;-86
2022/01/27 03:00:35;;;;;;;18.75;9.02;;;3.00;99.90;;;;;;5072563;28;20023;-88
2022/01/27 03:03:00;;;;;;;12.77;7.78;;;2.90;99.90;;;;;;5071083;28;20028;-88
2022/01/27 03:05:28;;;;;;;16.15;8.40;;;2.90;99.90;;;;;;5072254;28;20114;-87
2022/01/27 03:07:54;;;;;;;17.33;8.48;;;3.00;99.90;;;;;;5071167;28;20025;-86
2022/01/27 03:10:20;;;;;;;15.20;8.13;;;2.90;99.90;;;;;;5074106;28;20028;-87
2022/01/27 03:12:56;;;;;;;13.57;8.05;;;2.90;99.90;;;;;;5075659;28;20028;-88
2022/01/27 03:15:22;;;;;;;17.35;8.95;;;2.90;99.90;;;;;;5072368;28;20025;-87
2022/01/27 03:17:47;;;;;;;17.10;9.45;;;2.90;99.90;;;;;;5072597;28;20032;-87
2022/01/27 03:20:20;;;;;;;18.30;9.82;;;2.90;99.90;;;;;;5070981;28;20103;-87
2022/01/27 03:22:46;;;;;;;17.58;9.43;;;2.80;99.90;;;;;;5072408;28;20112;-88
2022/01/27 03:25:19;;;;;;;17.35;10.32;;;2.90;99.90;;;;;;5072302;28;20108;-88
2022/01/27 03:27:47;;;;;;;22.65;9.73;;;2.80;99.90;;;;;;5072230;28;20033;-87
2022/01/27 03:30:26;;;;;;;16.60;9.35;;;2.80;99.90;;;;;;5071503;28;20029;-87
2022/01/27 03:32:52;;;;;;;17.85;9.95;;;2.80;99.90;;;;;;5072153;28;20365;-86
2022/01/27 03:35:17;;;;;;;21.52;10.55;;;2.80;99.90;;;;;;5070750;28;20074;-87
2022/01/27 03:38:05;;;;;;;19.48;9.65;;;2.80;99.90;;;;;;5072323;28;20407;-87
2022/01/27 03:40:31;;;;;;;18.50;8.25;;;2.80;99.90;;;;;;5072257;28;20025;-86
2022/01/27 03:43:05;;;;;;;15.27;8.35;;;2.80;99.90;;;;;;5072233;28;20078;-86
2022/01/27 03:45:31;;;;;;;19.60;10.57;;;2.80;99.90;;;;;;5087333;28;20027;-87
2022/01/27 03:47:57;;;;;;;15.65;9.68;;;2.90;99.90;;;;;;5092435;28;20102;-87
2022/01/27 03:50:28;;;;;;;16.92;9.70;;;2.80;99.90;;;;;;5090848;28;20036;-88
2022/01/27 03:52:55;;;;;;;20.50;10.32;;;2.80;99.90;;;;;;5095929;28;20472;-86
2022/01/27 03:55:20;;;;;;;19.52;10.95;;;2.80;99.90;;;;;;5096127;28;20028;-86
2022/01/27 03:57:53;;;;;;;23.25;10.63;;;2.80;99.90;;;;;;5094826;28;20028;-85
2022/01/27 04:00:19;;;;;;;18.67;9.73;;;2.80;99.90;;;;;;5096056;28;20052;-87
2022/01/27 04:03:01;;;;;;;21.77;10.70;;;2.90;99.90;;;;;;5085250;28;20493;-86
2022/01/27 04:05:35;;;;;;;19.55;10.95;;;2.80;99.90;;;;;;5084994;28;20024;-88
2022/01/27 04:08:01;;;;;;;21.75;10.40;;;2.80;99.90;;;;;;5095965;28;20024;-84
2022/01/27 04:10:34;;;;;;;21.33;10.20;;;2.70;99.90;;;;;;5095988;28;20480;-86
2022/01/27 04:13:00;;;;;;;20.77;11.60;;;2.70;99.90;;;;;;5086305;28;20029;-85
2022/01/27 04:15:28;;;;;;;20.48;11.23;;;2.70;99.90;;;;;;5089007;28;20020;-85
2022/01/27 04:17:53;;;;;;;21.02;11.93;;;2.70;99.90;;;;;;5074412;28;20021;-87
2022/01/27 04:20:19;;;;;;;27.08;11.80;;;2.70;99.90;;;;;;5085799;28;20510;-87
2022/01/27 04:22:52;;;;;;;23.02;12.02;;;2.70;99.90;;;;;;5081538;28;20103;-85
2022/01/27 04:25:18;;;;;;;26.58;12.50;;;2.70;99.90;;;;;;5093128;28;20031;-89
2022/01/27 04:27:51;;;;;;;26.02;13.10;;;2.60;99.90;;;;;;5095455;28;20468;-86
2022/01/27 04:30:19;;;;;;;24.15;11.35;;;2.70;99.90;;;;;;5088527;28;20046;-86
2022/01/27 04:32:50;;;;;;;22.65;11.30;;;2.70;99.90;;;;;;5082281;28;20039;-87
2022/01/27 04:35:43;;;;;;;25.77;12.77;;;2.70;99.90;;;;;;5075039;28;20104;-87
2022/01/27 04:40:50;;;;;;;25.23;12.77;;;2.70;99.90;;;;;;5075484;28;20078;-88
2022/01/27 04:43:38;;;;;;;;;;;2.70;99.90;;;;;;5075345;28;20032;-87
2022/01/27 04:48:42;;;;;;;26.15;13.85;;;2.70;99.90;;;;;;5075430;28;20031;-87
2022/01/27 04:51:11;;;;;;;30.05;13.25;;;2.70;99.90;;;;;;5074512;28;20025;-86
2022/01/27 04:53:48;;;;;;;23.50;11.73;;;2.60;99.90;;;;;;5070808;28;20049;-87
2022/01/27 04:56:15;;;;;;;26.27;13.13;;;2.70;99.90;;;;;;5073409;28;20123;-89
2022/01/27 04:58:44;;;;;;;19.17;10.68;;;2.70;99.90;;;;;;5073802;28;20025;-84
2022/01/27 05:01:37;;;;;;;23.63;13.13;;;2.70;99.90;;;;;;5073393;28;20024;-88
2022/01/27 05:04:08;;;;;;;23.88;12.40;;;2.70;99.90;;;;;;5054755;28;20426;-86
2022/01/27 05:06:34;;;;;;;25.33;13.27;;;2.70;99.90;;;;;;5054366;28;20424;-87
2022/01/27 05:09:00;;;;;;;31.15;14.80;;;2.70;99.90;;;;;;5054423;28;20021;-87
2022/01/27 05:11:58;;;;;;;26.00;13.02;;;2.60;99.90;;;;;;5062164;28;20059;-88
2022/01/27 05:14:25;;;;;;;26.58;11.57;;;2.60;99.90;;;;;;5074521;28;20020;-89
2022/01/27 05:16:58;;;;;;;26.55;14.68;;;2.60;99.90;;;;;;5074397;28;20016;-88
2022/01/27 05:19:23;;;;;;;30.48;14.45;;;2.60;99.90;;;;;;5072852;28;20070;-87
2022/01/27 05:21:49;;;;;;;30.73;16.23;;;2.60;99.90;;;;;;5074479;28;20024;-87
2022/01/27 05:24:16;;;;;;;26.60;14.63;;;2.60;99.90;;;;;;5074247;28;20028;-85
2022/01/27 05:26:42;;;;;;;25.75;13.15;;;2.60;99.90;;;;;;5073056;28;20059;-87
2022/01/27 05:29:09;;;;;;;32.72;15.38;;;2.70;99.90;;;;;;5074138;28;20457;-88
2022/01/27 05:31:38;;;;;;;32.75;15.93;;;2.70;99.90;;;;;;5072791;28;20029;-85
2022/01/27 05:34:04;;;;;;;33.65;16.20;;;2.80;99.90;;;;;;5074290;28;20103;-87
2022/01/27 05:36:31;;;;;;;31.15;15.52;;;2.70;99.90;;;;;;5074008;28;20028;-87
2022/01/27 05:38:56;;;;;;;33.40;15.35;;;2.70;99.90;;;;;;5074131;28;20020;-86
2022/01/27 05:41:23;;;;;;;32.38;17.05;;;2.60;99.90;;;;;;5073782;28;20021;-89
2022/01/27 05:43:49;;;;;;;36.25;16.42;;;2.60;99.90;;;;;;5073275;28;20035;-87
2022/01/27 05:46:17;;;;;;;29.70;15.85;;;2.60;99.90;;;;;;5072407;28;20016;-88
2022/01/27 05:48:43;;;;;;;32.78;16.65;;;2.60;99.90;;;;;;5073833;28;20079;-88
2022/01/27 05:51:09;;;;;;;37.03;16.65;;;2.60;99.90;;;;;;5073466;28;20373;-87
2022/01/27 05:53:36;;;;;;;37.28;17.42;;;2.60;99.90;;;;;;5073145;28;20072;-90
2022/01/27 05:56:02;;;;;;;39.80;19.00;;;2.60;99.90;;;;;;5072612;28;20025;-86
2022/01/27 05:58:35;;;;;;;35.97;16.65;;;2.70;99.90;;;;;;5073433;28;20044;-92
2022/01/27 06:01:01;;;;;;;39.85;18.27;;;2.70;99.90;;;;;;5072487;28;20079;-86
2022/01/27 06:03:27;;;;;;;36.13;18.08;;;2.70;99.90;;;;;;5073318;28;20076;-87
2022/01/27 06:05:52;;;;;;;39.60;18.45;;;2.60;99.90;;;;;;5073241;28;20033;-87
2022/01/27 06:08:30;;;;;;;39.38;18.83;;;2.60;99.90;;;;;;5072477;28;20028;-88
2022/01/27 06:10:57;;;;;;;31.45;17.63;;;2.60;99.90;;;;;;5073158;28;20540;-86
2022/01/27 06:13:23;;;;;;;40.65;20.33;;;2.60;99.90;;;;;;5070904;28;20028;-86
2022/01/27 06:15:49;;;;;;;42.65;20.83;;;2.60;99.90;;;;;;5071693;28;20164;-88
2022/01/27 06:18:21;;;;;;;41.13;20.27;;;2.60;99.90;;;;;;5071616;28;20016;-88
2022/01/27 06:20:47;;;;;;;40.75;19.98;;;2.60;99.90;;;;;;5072326;28;20039;-88
2022/01/27 06:23:24;;;;;;;41.83;18.08;;;2.60;99.90;;;;;;5072759;28;20036;-85
2022/01/27 06:25:50;;;;;;;39.88;19.88;;;2.60;99.90;;;;;;5073239;28;20492;-89
2022/01/27 06:28:22;;;;;;;44.03;20.38;;;2.60;99.90;;;;;;5071628;28;20067;-88
2022/01/27 06:30:48;;;;;;;43.38;21.40;;;2.60;99.90;;;;;;5073146;28;20040;-87
2022/01/27 06:33:18;;;;;;;42.55;21.85;;;2.60;99.90;;;;;;5072819;28;20024;-87
2022/01/27 06:35:44;;;;;;;48.15;22.67;;;2.60;99.90;;;;;;5070630;28;20046;-86
2022/01/27 06:38:20;;;;;;;45.13;22.35;;;2.60;99.90;;;;;;5072560;28;20021;-86
2022/01/27 06:40:45;;;;;;;48.97;23.33;;;2.60;99.90;;;;;;5071435;28;20016;-87
2022/01/27 06:43:15;;;;;;;41.60;21.20;;;2.60;99.90;;;;;;5072703;28;20028;-87
2022/01/27 06:45:46;;;;;;;46.15;22.40;;;2.60;99.90;;;;;;5072947;28;20052;-87
2022/01/27 06:48:12;;;;;;;45.85;23.27;;;2.50;99.90;;;;;;5072973;28;20108;-86
2022/01/27 06:50:38;;;;;;;51.88;25.40;;;2.60;99.90;;;;;;5072287;28;20116;-89
2022/01/27 06:53:23;;;;;;;53.03;23.20;;;2.60;99.90;;;;;;5072297;28;20097;-89
2022/01/27 06:55:50;;;;;;;44.35;23.50;;;2.60;99.90;;;;;;5072590;28;20110;-87
2022/01/27 06:58:15;;;;;;;45.15;22.77;;;2.60;99.90;;;;;;5072612;28;20082;-87
2022/01/27 07:00:52;;;;;;;45.88;22.75;;;2.70;99.90;;;;;;5072745;28;20024;-88
2022/01/27 07:03:18;;;;;;;49.42;23.35;;;2.70;99.90;;;;;;5071545;28;20025;-86
2022/01/27 07:05:43;;;;;;;49.50;24.50;;;2.70;99.90;;;;;;5072345;28;20123;-87
2022/01/27 07:08:13;;;;;;;50.75;22.27;;;2.70;99.90;;;;;;5072472;28;20100;-88
2022/01/27 07:10:38;;;;;;;56.65;25.63;;;2.70;99.90;;;;;;5072275;28;20029;-88
2022/01/27 07:13:14;;;;;;;54.17;25.88;;;2.70;99.90;;;;;;5072126;28;20043;-86
2022/01/27 07:15:43;;;;;;;;;;;2.70;99.90;;;;;;5071913;28;20496;-87
2022/01/27 07:18:09;;;;;;;46.28;24.00;;;2.70;99.90;;;;;;5072545;28;19904;-86
2022/01/27 07:20:39;;;;;;;55.38;25.98;;;2.70;99.90;;;;;;5071730;28;20013;-87
2022/01/27 07:23:08;;;;;;;57.60;27.08;;;2.60;99.90;;;;;;5072197;28;20503;-88
2022/01/27 07:26:03;;;;;;;48.85;21.80;;;2.70;99.90;;;;;;5074482;28;20024;-86
2022/01/27 07:28:28;;;;;;;55.42;26.80;;;2.70;99.90;;;;;;5076230;28;20476;-87
2022/01/27 07:30:57;;;;;;;48.78;24.27;;;2.70;99.90;;;;;;5076214;28;20028;-85
2022/01/27 07:33:23;;;;;;;54.97;25.95;;;2.70;99.90;;;;;;5076274;28;20029;-88
2022/01/27 07:36:34;;;;;;;51.10;24.70;;;2.70;99.90;;;;;;5075973;28;20027;-87
2022/01/27 07:39:01;;;;;;;58.63;26.27;;;2.70;99.90;;;;;;5076474;28;20074;-86
2022/01/27 07:41:26;;;;;;;54.08;27.30;;;2.70;99.90;;;;;;5076375;28;20017;-89
2022/01/27 07:43:59;;;;;;;56.00;26.42;;;2.70;99.90;;;;;;5076072;28;20037;-84
2022/01/27 07:46:24;;;;;;;42.65;22.13;;;2.70;99.90;;;;;;5093026;28;20082;-88
2022/01/27 07:48:52;;;;;;;56.63;27.13;;;2.70;99.90;;;;;;5095182;28;20078;-89
2022/01/27 07:51:18;;;;;;;57.13;26.77;;;2.60;99.90;;;;;;5071555;28;20103;-87
2022/01/27 07:53:58;;;;;;;58.13;27.08;;;2.70;99.90;;;;;;5074285;28;20548;-87
2022/01/27 07:56:23;;;;;;;56.28;26.50;;;2.70;99.90;;;;;;5091860;28;20032;-87
2022/01/27 07:58:49;;;;;;;48.67;21.95;;;2.70;99.90;;;;;;5096189;28;20016;-85
2022/01/27 08:01:27;;;;;;;39.83;18.83;;;2.70;99.90;;;;;;5096188;28;20108;-87
2022/01/27 08:03:52;;;;;;;53.70;23.60;;;2.70;99.90;;;;;;5074329;28;20508;-85
2022/01/27 08:06:19;;;;;;;51.50;22.05;;;2.70;99.90;;;;;;5075709;28;20032;-87
2022/01/27 08:08:45;;;;;;;53.67;25.38;;;2.70;99.90;;;;;;5074660;28;20119;-87
2022/01/27 08:11:12;;;;;;;56.45;27.45;;;2.70;99.90;;;;;;5074590;28;20595;-86
2022/01/27 08:13:37;;;;;;;51.78;26.15;;;2.70;99.90;;;;;;5075486;28;20032;-86
2022/01/27 08:16:08;;;;;;;53.97;26.02;;;2.70;99.90;;;;;;5075861;28;20567;-87
2022/01/27 08:18:34;;;;;;;57.80;26.02;;;2.70;99.90;;;;;;5075490;28;20027;-88
2022/01/27 08:20:59;;;;;;;59.38;26.90;;;2.70;99.90;;;;;;5075285;28;20431;-85
2022/01/27 08:23:31;;;;;;;61.50;30.60;;;2.70;99.90;;;;;;5074118;28;20029;-86
2022/01/27 08:26:06;;;;;;;53.03;26.13;;;2.70;99.90;;;;;;5075173;28;20087;-86
2022/01/27 08:28:52;;;;;;;58.67;27.48;;;2.70;99.90;;;;;;5054772;28;20036;-86
2022/01/27 08:31:32;;;;;;;57.47;26.95;;;2.80;99.90;;;;;;5070301;28;20029;-86
2022/01/27 08:34:02;;;;;;;51.50;24.63;;;2.70;99.90;;;;;;5074977;28;20031;-88
2022/01/27 08:36:28;;;;;;;54.08;25.65;;;2.70;99.90;;;;;;5074334;28;20099;-85
2022/01/27 08:38:54;;;;;;;49.20;23.02;;;2.70;99.90;;;;;;5075078;28;20096;-86
2022/01/27 08:41:19;;;;;;;58.33;26.33;;;2.70;99.90;;;;;;5075059;28;20103;-87
2022/01/27 08:43:55;;;;;;;50.33;23.88;;;2.70;99.90;;;;;;5075042;28;20017;-84
2022/01/27 08:46:20;;;;;;;54.42;26.15;;;2.70;99.90;;;;;;5075180;28;20044;-88
2022/01/27 08:48:49;;;;;;;42.47;20.10;;;2.80;99.90;;;;;;5073565;28;20067;-86
2022/01/27 08:51:20;;;;;;;42.97;21.05;;;2.70;99.90;;;;;;5074905;28;20104;-87
2022/01/27 08:53:46;;;;;;;52.05;24.63;;;2.80;99.90;;;;;;5073481;28;20060;-87
2022/01/27 08:56:13;;;;;;;45.80;20.67;;;2.80;99.90;;;;;;5074059;28;20094;-86
2022/01/27 08:58:43;;;;;;;45.60;21.30;;;2.80;99.90;;;;;;5073575;28;20024;-86
2022/01/27 09:01:08;;;;;;;42.17;20.35;;;2.80;99.90;;;;;;5074730;28;20029;-87
2022/01/27 09:03:36;;;;;;;37.60;19.17;;;2.80;99.90;;;;;;5074578;28;20055;-86
2022/01/27 09:06:01;;;;;;;42.85;19.15;;;2.90;99.90;;;;;;5074347;28;20024;-86
2022/01/27 09:08:28;;;;;;;37.50;18.20;;;2.90;99.90;;;;;;5073399;28;20078;-87
2022/01/27 09:10:54;;;;;;;38.17;19.15;;;2.90;99.90;;;;;;5074546;28;20028;-86
2022/01/27 09:13:19;;;;;;;36.17;17.85;;;3.00;99.90;;;;;;5073198;28;20025;-87
2022/01/27 09:15:49;;;;;;;32.13;16.08;;;3.00;99.90;;;;;;5073336;28;20380;-86
2022/01/27 09:18:22;;;;;;;35.55;17.55;;;3.00;99.90;;;;;;5073133;28;20020;-87
2022/01/27 09:20:48;;;;;;;35.38;17.48;;;3.00;99.90;;;;;;5072870;28;20532;-88
2022/01/27 09:23:14;;;;;;;35.72;16.33;;;3.10;99.90;;;;;;5074259;28;20100;-87
2022/01/27 09:25:47;;;;;;;31.52;15.15;;;3.10;99.90;;;;;;5073105;28;20082;-86
2022/01/27 09:28:14;;;;;;;33.20;16.02;;;3.10;99.90;;;;;;5074090;28;20032;-87
2022/01/27 09:30:41;;;;;;;34.33;14.82;;;3.20;99.90;;;;;;5073023;28;20476;-88
2022/01/27 09:33:13;;;;;;;26.98;14.07;;;3.30;99.90;;;;;;5072592;28;20480;-87
2022/01/27 09:35:39;;;;;;;36.88;17.02;;;3.30;99.90;;;;;;5073859;28;20070;-87
2022/01/27 09:38:05;;;;;;;31.85;14.38;;;3.30;99.90;;;;;;5072831;28;20056;-86
2022/01/27 09:40:33;;;;;;;31.60;14.90;;;3.40;99.90;;;;;;5074021;28;20019;-89
2022/01/27 09:43:03;;;;;;;29.85;14.77;;;3.40;99.90;;;;;;5072621;28;20119;-88
2022/01/27 09:45:30;;;;;;;28.55;15.27;;;3.40;99.90;;;;;;5073966;28;20100;-85
2022/01/27 09:48:16;;;;;;;30.58;15.38;;;3.40;99.90;;;;;;5073684;28;20071;-85
2022/01/27 09:53:30;;;;;;;28.38;14.35;;;3.50;99.90;;;;;;5073447;28;20086;-86
2022/01/27 09:55:56;;;;;;;29.20;14.30;;;3.60;99.90;;;;;;5073372;28;20094;-88
2022/01/27 09:58:23;;;;;;;28.35;14.63;;;3.60;99.90;;;;;;5073645;28;20439;-88
2022/01/27 10:00:49;;;;;;;24.73;11.85;;;3.60;99.90;;;;;;5073228;28;20096;-88
2022/01/27 10:03:55;;;;;;;25.83;13.43;;;3.60;99.90;;;;;;5073371;28;20052;-87
2022/01/27 10:06:26;;;;;;;25.87;13.63;;;3.70;99.90;;;;;;5073570;28;20055;-88
2022/01/27 10:09:14;;;;;;;27.48;12.52;;;3.80;99.90;;;;;;5073077;28;20271;-89
2022/01/27 10:11:42;;;;;;;30.02;12.90;;;3.90;99.90;;;;;;5071816;28;20480;-85
2022/01/27 10:14:19;;;;;;;32.92;13.30;;;4.00;99.90;;;;;;5072637;28;20020;-87
2022/01/27 10:16:45;;;;;;;26.50;11.13;;;4.10;99.90;;;;;;5071557;28;20020;-86
2022/01/27 10:19:26;;;;;;;22.02;11.45;;;4.30;99.90;;;;;;5072883;28;20021;-88
2022/01/27 10:22:01;;;;;;;28.08;11.25;;;4.20;99.90;;;;;;5073034;28;20017;-85
2022/01/27 10:24:29;;;;;;;19.63;9.63;;;4.30;99.90;;;;;;5073115;28;20020;-83
2022/01/27 10:32:57;;;;;;;16.35;8.75;;;4.60;99.90;;;;;;5073009;28;20025;-87
2022/01/27 10:39:34;;;;;;;14.40;7.68;;;4.50;99.90;;;;;;5073134;28;20024;-88
2022/01/27 10:42:07;;;;;;;12.70;6.75;;;4.50;99.90;;;;;;5071457;28;20412;-84
2022/01/27 10:44:47;;;;;;;13.93;6.70;;;4.50;99.90;;;;;;5072824;28;20052;-82
2022/01/27 10:47:21;;;;;;;13.80;6.80;;;4.40;99.90;;;;;;5072881;28;20055;-83
2022/01/27 10:49:54;;;;;;;13.25;7.25;;;4.50;99.90;;;;;;5072296;28;20091;-84
2022/01/27 10:52:36;;;;;;;10.55;6.57;;;4.40;99.90;;;;;;5072734;28;20086;-83
2022/01/27 10:55:20;;;;;;;15.68;7.07;;;4.40;99.90;;;;;;5072768;28;20076;-84
2022/01/27 10:57:50;;;;;;;11.48;6.05;;;4.40;99.90;;;;;;5072632;28;20032;-89
2022/01/27 11:00:36;;;;;;;10.10;5.80;;;4.50;99.90;;;;;;5072175;28;20020;-87
2022/01/27 11:03:02;;;;;;;9.20;5.50;;;4.50;99.90;;;;;;5071573;28;20426;-86
2022/01/27 11:05:45;;;;;;;10.65;5.53;;;4.60;99.90;;;;;;5072247;28;20539;-86
2022/01/27 11:08:10;;;;;;;7.63;4.25;;;4.60;99.90;;;;;;5071610;28;20369;-86
2022/01/27 11:10:50;;;;;;;11.18;5.45;;;4.70;99.90;;;;;;5072515;28;20025;-86
2022/01/27 11:13:19;;;;;;;10.77;5.43;;;4.70;99.90;;;;;;5072184;28;20048;-86
2022/01/27 11:15:53;;;;;;;8.40;4.47;;;4.70;99.90;;;;;;5072677;28;20524;-87
2022/01/27 11:18:21;;;;;;;16.77;7.93;;;4.70;99.90;;;;;;5072609;28;20040;-88
2022/01/27 11:21:03;;;;;;;8.85;4.15;;;4.70;99.90;;;;;;5070864;28;20024;-85
2022/01/27 11:26:45;;;;;;;8.73;4.78;;;4.70;99.90;;;;;;5072763;28;20479;-88
2022/01/27 11:29:13;;;;;;;16.90;6.03;;;4.70;99.90;;;;;;5072161;28;20055;-87
2022/01/27 11:32:02;;;;;;;7.13;4.03;;;4.70;99.90;;;;;;5072389;28;20385;-87
2022/01/27 11:34:51;;;;;;;7.03;4.07;;;4.80;99.90;;;;;;5071878;28;20027;-88
2022/01/27 11:37:49;;;;;;;8.23;4.40;;;4.90;99.90;;;;;;5070960;28;20079;-87
2022/01/27 11:40:17;;;;;;;6.35;3.88;;;4.90;99.90;;;;;;5072266;28;20486;-86
2022/01/27 11:42:54;;;;;;;3.90;3.17;;;4.90;99.90;;;;;;5070832;28;20036;-86
2022/01/27 11:45:39;;;;;;;7.20;3.47;;;5.00;99.90;;;;;;5071035;28;20055;-85
2022/01/27 11:48:25;;;;;;;10.83;4.33;;;5.00;99.90;;;;;;5072220;28;20059;-86
2022/01/27 11:51:13;;;;;;;5.60;3.50;;;5.10;99.90;;;;;;5072109;28;20615;-89
2022/01/27 11:54:23;;;;;;;6.03;3.03;;;5.20;99.90;;;;;;5070717;28;20392;-87
2022/01/27 11:56:49;;;;;;;6.13;3.65;;;5.20;99.90;;;;;;5071870;28;20029;-86
2022/01/27 11:59:37;;;;;;;6.88;3.90;;;5.30;99.90;;;;;;5072042;28;20021;-87
2022/01/27 12:02:02;;;;;;;2.78;2.38;;;5.30;99.90;;;;;;5070663;28;20529;-87
2022/01/27 12:04:32;;;;;;;4.15;2.97;;;5.30;99.90;;;;;;5071928;28;20025;-86
2022/01/27 12:07:00;;;;;;;4.47;2.92;;;5.30;99.90;;;;;;5072072;28;20032;-86
2022/01/27 12:09:37;;;;;;;4.65;2.88;;;5.30;99.90;;;;;;5070855;28;20380;-87
2022/01/27 12:12:12;;;;;;;6.43;3.03;;;5.30;99.90;;;;;;5073178;28;20050;-87
2022/01/27 12:14:46;;;;;;;4.28;3.17;;;5.30;99.90;;;;;;5076061;28;20032;-87
2022/01/27 12:17:21;;;;;;;2.88;2.13;;;5.40;99.90;;;;;;5075484;28;20668;-85
2022/01/27 12:19:59;;;;;;;2.88;2.35;;;5.40;99.90;;;;;;5074039;28;20468;-86
2022/01/27 12:22:50;;;;;;;2.20;1.73;;;5.40;99.90;;;;;;5074160;28;20028;-85
2022/01/27 12:25:48;;;;;;;4.63;2.30;;;5.40;99.90;;;;;;5075295;28;20579;-86
2022/01/27 12:28:13;;;;;;;3.85;2.63;;;5.40;99.90;;;;;;5073988;28;20053;-86
2022/01/27 12:30:40;;;;;;;4.45;2.80;;;5.30;99.90;;;;;;5075480;28;20067;-89
2022/01/27 12:33:06;;;;;;;8.13;3.17;;;5.30;99.90;;;;;;5074024;28;20028;-87
2022/01/27 12:35:32;;;;;;;5.07;2.50;;;5.30;99.90;;;;;;5073304;28;20107;-87
2022/01/27 12:37:59;;;;;;;3.53;2.28;;;5.30;99.90;;;;;;5073733;28;20025;-86
2022/01/27 12:40:33;;;;;;;3.90;2.88;;;5.30;99.90;;;;;;5073806;28;20077;-88
2022/01/27 12:43:02;;;;;;;3.65;2.47;;;5.20;99.90;;;;;;5073693;28;20057;-86
2022/01/27 12:45:36;;;;;;;4.18;2.88;;;5.20;99.90;;;;;;5075102;28;20358;-85
2022/01/27 12:48:08;;;;;;;5.72;3.17;;;5.10;99.90;;;;;;5075167;28;20112;-85
2022/01/27 12:50:57;;;;;;;3.60;2.83;;;5.10;99.90;;;;;;5074661;28;20029;-85
2022/01/27 12:53:22;;;;;;;4.63;3.00;;;5.10;99.90;;;;;;5074756;28;20052;-85
2022/01/27 12:55:48;;;;;;;4.30;3.15;;;5.10;99.90;;;;;;5073457;28;20090;-87
2022/01/27 12:58:20;;;;;;;4.80;2.95;;;5.00;99.90;;;;;;5074657;28;20070;-87
2022/01/27 13:00:48;;;;;;;5.53;2.78;;;5.00;99.90;;;;;;5073615;28;20016;-86
2022/01/27 13:03:15;;;;;;;4.93;2.92;;;5.00;99.90;;;;;;5073295;28;20077;-86
2022/01/27 13:05:45;;;;;;;3.28;2.47;;;5.00;99.90;;;;;;5073518;28;20033;-89
2022/01/27 13:08:17;;;;;;;12.35;5.80;;;5.10;99.90;;;;;;5074766;28;20020;-88
2022/01/27 13:10:52;;;;;;;4.80;3.25;;;5.00;99.90;;;;;;5074656;28;20536;-89
2022/01/27 13:13:25;;;;;;;5.28;2.75;;;5.00;99.90;;;;;;5073008;28;20024;-87
2022/01/27 13:15:58;;;;;;;5.72;2.92;;;4.90;99.90;;;;;;5073332;28;20073;-87
2022/01/27 13:18:39;;;;;;;3.22;1.95;;;5.00;99.90;;;;;;5074161;28;20024;-86
2022/01/27 13:21:07;;;;;;;3.67;2.33;;;5.00;99.90;;;;;;5074361;28;20020;-87
2022/01/27 13:24:17;;;;;;;5.70;2.30;;;5.00;99.90;;;;;;5073895;28;20033;-86
2022/01/27 13:26:45;;;;;;;4.35;2.53;;;5.00;99.90;;;;;;5074354;28;20056;-85
2022/01/27 13:29:19;;;;;;;2.58;2.20;;;5.10;99.90;;;;;;5074216;28;20031;-86
2022/01/27 13:31:46;;;;;;;3.90;2.40;;;5.10;99.90;;;;;;5074023;28;20369;-85
2022/01/27 13:34:14;;;;;;;3.67;2.35;;;5.10;99.90;;;;;;5072506;28;20028;-88
2022/01/27 13:36:39;;;;;;;3.08;2.10;;;5.10;99.90;;;;;;5074175;28;20472;-87
2022/01/27 13:39:35;;;;;;;2.40;1.90;;;5.20;99.90;;;;;;5074191;28;20024;-85
2022/01/27 13:42:16;;;;;;;2.65;1.92;;;5.20;99.90;;;;;;5073647;28;20074;-86
2022/01/27 13:44:55;;;;;;;1.63;1.52;;;5.20;99.90;;;;;;5072634;28;20368;-86
2022/01/27 13:47:28;;;;;;;1.63;1.52;;;5.20;99.90;;;;;;5072685;28;20020;-87
2022/01/27 13:50:12;;;;;;;2.30;1.63;;;5.20;99.90;;;;;;5073304;28;20046;-85
2022/01/27 13:52:49;;;;;;;1.60;1.50;;;5.20;99.90;;;;;;5072267;28;20025;-86
2022/01/27 13:55:24;;;;;;;1.58;1.30;;;5.30;99.90;;;;;;5073389;28;20102;-87
2022/01/27 13:58:01;;;;;;;1.60;1.50;;;5.30;99.90;;;;;;5073749;28;20024;-87
2022/01/27 14:00:41;;;;;;;1.40;1.30;;;5.30;99.90;;;;;;5073579;28;20404;-85